Time;durP1;ratioP1;P1;durP2;ratioP2;P2;SDS_P1;SDS_P2;PMS_P1;PMS_P2;Temp;Humidity;BMP_temperature;BMP_pressure;BME280_temperature;BME280_humidity;BME280_pressure;Samples;Min_cycle;Max_cycle;Signal;HPM_P1;HPM_P2
2021/05/19 00:00:53;;;;;;;2.47;1.15;;;20.40;47.90;;;;;;5097090;28;20017;-69
2021/05/19 00:03:18;;;;;;;2.55;1.10;;;20.40;48.00;;;;;;5094297;28;20020;-70
2021/05/19 00:05:44;;;;;;;4.00;1.58;;;20.40;47.90;;;;;;5094382;28;20529;-71
2021/05/19 00:08:10;;;;;;;3.13;1.55;;;20.40;48.00;;;;;;5092701;28;20051;-70
2021/05/19 00:10:36;;;;;;;2.75;1.30;;;20.40;48.00;;;;;;5094260;28;20020;-70
2021/05/19 00:13:02;;;;;;;2.75;1.42;;;20.40;48.00;;;;;;5094337;28;20016;-70
2021/05/19 00:15:28;;;;;;;2.63;1.33;;;20.40;48.00;;;;;;5094024;28;20024;-70
2021/05/19 00:17:54;;;;;;;4.20;1.50;;;20.40;48.00;;;;;;5094616;28;20054;-70
2021/05/19 00:20:21;;;;;;;3.05;1.33;;;20.30;48.00;;;;;;5094141;28;20028;-70
2021/05/19 00:22:47;;;;;;;3.78;1.50;;;20.30;48.00;;;;;;5094077;28;20119;-70
2021/05/19 00:25:14;;;;;;;4.25;1.38;;;20.30;48.00;;;;;;5093794;28;20094;-70
2021/05/19 00:27:39;;;;;;;3.75;1.60;;;20.30;48.00;;;;;;5093635;28;20020;-70
2021/05/19 00:30:07;;;;;;;2.97;1.45;;;20.30;48.00;;;;;;5093910;28;20074;-69
2021/05/19 00:32:32;;;;;;;3.70;1.58;;;20.30;48.00;;;;;;5092816;28;20496;-70
2021/05/19 00:34:58;;;;;;;4.65;1.95;;;20.30;47.90;;;;;;5092909;28;20111;-70
2021/05/19 00:37:23;;;;;;;3.78;1.63;;;20.40;47.90;;;;;;5093945;28;20357;-70
2021/05/19 00:39:49;;;;;;;2.75;1.42;;;20.30;47.90;;;;;;5093749;28;20032;-70
2021/05/19 00:42:15;;;;;;;2.45;1.30;;;20.30;47.90;;;;;;5093531;28;20028;-70
2021/05/19 00:44:42;;;;;;;3.50;1.73;;;20.30;47.90;;;;;;5093808;28;20020;-69
2021/05/19 00:47:07;;;;;;;5.03;1.85;;;20.30;47.90;;;;;;5093644;28;20020;-70
2021/05/19 00:49:33;;;;;;;3.13;1.55;;;20.30;47.90;;;;;;5093627;28;20576;-70
2021/05/19 00:51:59;;;;;;;3.88;1.70;;;20.30;47.90;;;;;;5093480;28;20031;-70
2021/05/19 00:54:25;;;;;;;3.67;1.52;;;20.30;47.90;;;;;;5093315;28;20103;-70
2021/05/19 00:56:51;;;;;;;4.55;1.88;;;20.30;47.90;;;;;;5093496;28;20027;-70
2021/05/19 00:59:17;;;;;;;3.28;1.60;;;20.30;47.90;;;;;;5093320;28;20020;-69
2021/05/19 01:01:44;;;;;;;3.83;1.80;;;20.30;47.80;;;;;;5093375;28;20443;-70
2021/05/19 01:04:10;;;;;;;4.03;2.40;;;20.20;47.80;;;;;;5093235;28;20023;-70
2021/05/19 01:06:50;;;;;;;3.05;1.70;;;20.30;47.80;;;;;;5093339;28;20407;-70
2021/05/19 01:09:37;;;;;;;4.18;1.85;;;20.30;47.80;;;;;;5093008;28;20062;-71
2021/05/19 01:12:04;;;;;;;3.70;1.70;;;20.20;47.80;;;;;;5092962;28;20044;-69
2021/05/19 01:14:32;;;;;;;4.30;1.65;;;20.20;47.80;;;;;;5093297;28;20023;-70
2021/05/19 01:16:58;;;;;;;4.13;1.77;;;20.20;47.80;;;;;;5093758;28;20035;-70
2021/05/19 01:19:26;;;;;;;4.80;1.90;;;20.20;47.80;;;;;;5093380;28;20027;-70
2021/05/19 01:21:54;;;;;;;3.83;2.00;;;20.20;47.90;;;;;;5093587;28;20035;-69
2021/05/19 01:24:20;;;;;;;3.72;1.83;;;20.20;47.80;;;;;;5093230;28;20036;-70
2021/05/19 01:26:46;;;;;;;3.85;1.58;;;20.20;47.80;;;;;;5093132;28;20040;-72
2021/05/19 01:29:12;;;;;;;3.88;1.77;;;20.20;47.80;;;;;;5092997;28;20020;-71
2021/05/19 01:31:37;;;;;;;2.92;1.60;;;20.10;47.80;;;;;;5092907;28;20028;-71
2021/05/19 01:34:03;;;;;;;6.43;2.28;;;20.10;47.80;;;;;;5092922;28;20035;-72
2021/05/19 01:36:29;;;;;;;4.05;2.05;;;20.10;47.80;;;;;;5095123;28;20115;-71
2021/05/19 01:38:55;;;;;;;3.00;1.70;;;20.10;47.80;;;;;;5096815;28;20056;-70
2021/05/19 01:41:20;;;;;;;4.60;1.95;;;20.10;47.80;;;;;;5095544;28;20036;-71
2021/05/19 01:43:46;;;;;;;4.35;1.90;;;20.10;47.80;;;;;;5096880;28;20111;-70
2021/05/19 01:46:12;;;;;;;4.43;2.13;;;20.10;47.80;;;;;;5096862;28;20036;-72
2021/05/19 01:48:38;;;;;;;3.60;1.90;;;20.10;47.80;;;;;;5096837;28;20024;-71
2021/05/19 01:51:05;;;;;;;3.75;1.80;;;20.10;47.70;;;;;;5096756;28;20024;-71
2021/05/19 01:53:33;;;;;;;3.80;1.98;;;20.10;47.80;;;;;;5096895;28;20490;-71
2021/05/19 01:56:00;;;;;;;3.72;1.65;;;20.10;47.70;;;;;;5096594;28;20028;-72
2021/05/19 01:58:29;;;;;;;4.93;2.03;;;20.10;47.80;;;;;;5096872;28;20024;-72
2021/05/19 02:00:54;;;;;;;3.42;1.83;;;20.10;47.80;;;;;;5096757;28;20034;-71
2021/05/19 02:03:20;;;;;;;4.63;2.08;;;20.00;47.70;;;;;;5096806;28;20020;-71
2021/05/19 02:05:46;;;;;;;3.20;1.60;;;20.10;47.70;;;;;;5096396;28;20040;-71
2021/05/19 02:08:12;;;;;;;3.97;2.13;;;20.10;47.80;;;;;;5096638;28;20057;-71
2021/05/19 02:10:38;;;;;;;4.40;2.13;;;20.10;47.70;;;;;;5096384;28;20101;-71
2021/05/19 02:13:07;;;;;;;4.15;1.88;;;20.10;47.70;;;;;;5096626;28;20043;-71
2021/05/19 02:15:33;;;;;;;3.95;1.92;;;20.00;47.70;;;;;;5096542;28;20456;-71
2021/05/19 02:18:00;;;;;;;4.05;2.00;;;20.00;47.80;;;;;;5096446;28;20111;-70
2021/05/19 02:20:26;;;;;;;4.18;1.90;;;20.00;47.70;;;;;;5096445;28;20104;-71
2021/05/19 02:22:52;;;;;;;4.43;2.28;;;20.00;47.70;;;;;;5096567;28;20487;-73
2021/05/19 02:25:19;;;;;;;5.15;2.15;;;20.00;47.80;;;;;;5096053;28;20484;-71
2021/05/19 02:27:46;;;;;;;4.75;2.30;;;20.00;47.70;;;;;;5096260;28;20106;-71
2021/05/19 02:30:13;;;;;;;4.93;2.10;;;20.00;47.80;;;;;;5095959;28;20502;-71
2021/05/19 02:32:40;;;;;;;3.45;1.73;;;20.00;47.70;;;;;;5095972;28;20464;-71
2021/05/19 02:35:06;;;;;;;5.03;2.22;;;20.00;47.70;;;;;;5096146;28;20028;-71
2021/05/19 02:37:32;;;;;;;4.20;2.17;;;20.00;47.70;;;;;;5095734;28;20024;-71
2021/05/19 02:39:58;;;;;;;4.80;2.22;;;20.00;47.70;;;;;;5097273;28;20157;-71
2021/05/19 02:42:24;;;;;;;3.97;2.00;;;20.00;47.70;;;;;;5098070;28;20059;-71
2021/05/19 02:44:49;;;;;;;4.28;1.95;;;20.00;47.70;;;;;;5096432;28;20459;-71
2021/05/19 02:47:15;;;;;;;5.55;2.38;;;20.00;47.70;;;;;;5094658;28;20073;-71
2021/05/19 02:49:41;;;;;;;4.50;2.03;;;20.00;47.60;;;;;;5095561;28;20024;-71
2021/05/19 02:52:06;;;;;;;4.30;2.13;;;20.00;47.60;;;;;;5095835;28;20035;-71
2021/05/19 02:54:34;;;;;;;4.72;2.10;;;20.00;47.60;;;;;;5095347;28;20434;-72
2021/05/19 02:56:59;;;;;;;4.93;2.25;;;20.00;47.60;;;;;;5095675;28;20060;-71
2021/05/19 02:59:25;;;;;;;4.35;2.28;;;19.90;47.60;;;;;;5095616;28;20064;-71
2021/05/19 03:01:51;;;;;;;4.97;2.35;;;19.90;47.70;;;;;;5095492;28;20027;-71
2021/05/19 03:04:16;;;;;;;4.38;2.15;;;19.90;47.70;;;;;;5095527;28;20059;-70
2021/05/19 03:06:42;;;;;;;4.78;2.17;;;19.90;47.70;;;;;;5095499;28;20071;-70
2021/05/19 03:09:08;;;;;;;4.03;2.10;;;19.90;47.70;;;;;;5095172;28;20020;-71
2021/05/19 03:11:34;;;;;;;5.18;2.40;;;19.90;47.60;;;;;;5095429;28;20515;-71
2021/05/19 03:14:00;;;;;;;4.57;2.30;;;19.90;47.70;;;;;;5095281;28;20051;-71
2021/05/19 03:16:29;;;;;;;4.80;2.35;;;19.90;47.70;;;;;;5093766;28;20472;-71
2021/05/19 03:18:55;;;;;;;5.15;2.10;;;19.90;47.70;;;;;;5095027;28;20482;-71
2021/05/19 03:21:21;;;;;;;4.03;1.83;;;19.80;47.60;;;;;;5095351;28;20111;-71
2021/05/19 03:23:46;;;;;;;4.80;2.10;;;19.80;47.70;;;;;;5095066;28;20471;-71
2021/05/19 03:26:12;;;;;;;5.38;2.22;;;19.80;47.60;;;;;;5094909;28;20404;-71
2021/05/19 03:28:38;;;;;;;4.20;2.20;;;19.80;47.60;;;;;;5094927;28;20024;-71
2021/05/19 03:31:04;;;;;;;3.65;1.90;;;19.90;47.60;;;;;;5093456;28;20028;-71
2021/05/19 03:33:31;;;;;;;4.47;2.20;;;19.80;47.60;;;;;;5094914;28;20024;-70
2021/05/19 03:35:56;;;;;;;4.78;2.13;;;19.80;47.60;;;;;;5094919;28;20063;-71
2021/05/19 03:38:22;;;;;;;4.93;2.30;;;19.80;47.60;;;;;;5093746;28;20032;-71
2021/05/19 03:40:47;;;;;;;4.78;2.63;;;19.80;47.60;;;;;;5094588;28;20032;-71
2021/05/19 03:43:13;;;;;;;4.28;2.10;;;19.80;47.60;;;;;;5094786;28;20460;-71
2021/05/19 03:45:39;;;;;;;4.07;2.15;;;19.80;47.50;;;;;;5094448;28;20052;-71
2021/05/19 03:48:05;;;;;;;5.00;2.42;;;19.80;47.50;;;;;;5094914;28;20044;-71
2021/05/19 03:50:33;;;;;;;5.10;2.50;;;19.80;47.60;;;;;;5094697;28;20035;-71
2021/05/19 03:53:00;;;;;;;5.03;2.15;;;19.80;47.60;;;;;;5094618;28;20140;-71
2021/05/19 03:55:25;;;;;;;4.28;2.17;;;19.80;47.60;;;;;;5094487;28;20074;-71
2021/05/19 03:57:51;;;;;;;3.97;2.15;;;19.80;47.60;;;;;;5094455;28;20399;-71
2021/05/19 04:00:23;;;;;;;4.35;2.38;;;19.80;47.50;;;;;;5099366;28;20024;-72
2021/05/19 04:02:49;;;;;;;5.55;2.42;;;19.80;47.50;;;;;;5102573;28;20030;-71
2021/05/19 04:05:19;;;;;;;5.72;2.80;;;19.80;47.60;;;;;;5102274;28;20282;-71
2021/05/19 04:07:47;;;;;;;5.95;2.38;;;19.80;47.50;;;;;;5100133;28;20339;-71
2021/05/19 04:10:13;;;;;;;5.88;2.75;;;19.70;47.50;;;;;;5093633;28;20055;-71
2021/05/19 04:12:38;;;;;;;5.90;2.13;;;19.70;47.50;;;;;;5094388;28;20058;-71
2021/05/19 04:15:05;;;;;;;6.28;2.45;;;19.80;47.50;;;;;;5094114;28;20471;-71
2021/05/19 04:17:30;;;;;;;3.88;2.15;;;19.70;47.50;;;;;;5094426;28;20031;-71
2021/05/19 04:19:56;;;;;;;5.45;2.33;;;19.70;47.50;;;;;;5094239;28;20414;-71
2021/05/19 04:22:22;;;;;;;4.68;2.10;;;19.70;47.50;;;;;;5094039;28;20060;-71
2021/05/19 04:24:48;;;;;;;5.03;2.58;;;19.70;47.50;;;;;;5093552;28;20102;-71
2021/05/19 04:27:13;;;;;;;5.18;2.45;;;19.70;47.50;;;;;;5093911;28;20030;-71
2021/05/19 04:29:39;;;;;;;3.95;1.90;;;19.70;47.50;;;;;;5093895;28;20024;-70
2021/05/19 04:32:05;;;;;;;4.63;2.33;;;19.80;47.50;;;;;;5094048;28;20032;-70
2021/05/19 04:34:30;;;;;;;5.03;2.30;;;19.80;47.50;;;;;;5093853;28;20077;-71
2021/05/19 04:36:56;;;;;;;4.95;2.40;;;19.70;47.50;;;;;;5093979;28;20459;-70
2021/05/19 04:39:21;;;;;;;4.60;2.38;;;19.70;47.50;;;;;;5093772;28;20145;-69
2021/05/19 04:41:47;;;;;;;4.45;2.20;;;19.70;47.50;;;;;;5092290;28;20035;-69
2021/05/19 04:44:12;;;;;;;5.03;2.67;;;19.70;47.50;;;;;;5093663;28;20020;-70
2021/05/19 04:46:38;;;;;;;5.13;2.50;;;19.70;47.40;;;;;;5093844;28;20042;-70
2021/05/19 04:49:04;;;;;;;4.65;2.63;;;19.70;47.40;;;;;;5093593;28;20050;-71
2021/05/19 04:51:30;;;;;;;5.78;2.90;;;19.70;47.40;;;;;;5093618;28;20028;-70
2021/05/19 04:53:56;;;;;;;5.00;2.50;;;19.80;47.40;;;;;;5093499;28;20024;-70
2021/05/19 04:56:22;;;;;;;5.03;2.35;;;19.80;47.50;;;;;;5093529;28;20103;-69
2021/05/19 04:58:48;;;;;;;6.88;2.47;;;19.80;47.40;;;;;;5093653;28;20078;-69
2021/05/19 05:01:13;;;;;;;6.05;2.67;;;19.70;47.40;;;;;;5093546;28;20055;-69
2021/05/19 05:03:39;;;;;;;5.32;2.60;;;19.70;47.50;;;;;;5093403;28;20076;-70
2021/05/19 05:06:04;;;;;;;5.75;2.67;;;19.70;47.50;;;;;;5093417;28;20078;-69
2021/05/19 05:08:30;;;;;;;6.15;2.78;;;19.70;47.40;;;;;;5093242;28;20115;-70
2021/05/19 05:10:56;;;;;;;5.00;2.40;;;19.70;47.50;;;;;;5095046;28;20039;-70
2021/05/19 05:13:23;;;;;;;5.60;2.60;;;19.70;47.50;;;;;;5097456;28;20051;-70
2021/05/19 05:15:48;;;;;;;4.90;2.55;;;19.70;47.50;;;;;;5097650;28;20030;-70
2021/05/19 05:18:14;;;;;;;4.68;2.60;;;19.70;47.50;;;;;;5097455;28;20098;-70
2021/05/19 05:20:40;;;;;;;5.65;2.67;;;19.70;47.40;;;;;;5098046;28;20083;-70
2021/05/19 05:23:05;;;;;;;4.72;2.58;;;19.70;47.40;;;;;;5097428;28;20026;-70
2021/05/19 05:25:31;;;;;;;4.10;2.00;;;19.70;47.40;;;;;;5096962;28;20131;-70
2021/05/19 05:27:57;;;;;;;4.70;2.50;;;19.70;47.40;;;;;;5097389;28;20020;-71
2021/05/19 05:30:22;;;;;;;4.97;2.40;;;19.70;47.40;;;;;;5097259;28;20144;-70
2021/05/19 05:32:48;;;;;;;5.78;2.47;;;19.70;47.40;;;;;;5096952;28;20074;-70
2021/05/19 05:35:14;;;;;;;4.05;2.00;;;19.70;47.40;;;;;;5097045;28;20036;-70
2021/05/19 05:37:40;;;;;;;5.18;2.38;;;19.70;47.40;;;;;;5097157;28;20031;-70
2021/05/19 05:40:06;;;;;;;5.43;2.22;;;19.70;47.40;;;;;;5097107;28;20046;-70
2021/05/19 05:42:33;;;;;;;4.18;2.20;;;19.70;47.40;;;;;;5097107;28;20028;-70
2021/05/19 05:44:59;;;;;;;4.40;2.35;;;19.70;47.40;;;;;;5096917;28;20055;-70
2021/05/19 05:47:25;;;;;;;5.45;2.67;;;19.70;47.40;;;;;;5096797;28;20028;-70
2021/05/19 05:49:50;;;;;;;4.47;2.35;;;19.70;47.40;;;;;;5096743;28;20035;-72
2021/05/19 05:52:16;;;;;;;5.65;2.72;;;19.70;47.40;;;;;;5096857;28;20020;-70
2021/05/19 05:54:42;;;;;;;5.25;2.90;;;19.70;47.40;;;;;;5096756;28;20141;-70
2021/05/19 05:57:07;;;;;;;5.32;2.40;;;19.70;47.40;;;;;;5096814;28;20038;-69
2021/05/19 05:59:33;;;;;;;5.15;2.65;;;19.70;47.50;;;;;;5097145;28;20048;-70
2021/05/19 06:01:59;;;;;;;6.20;2.90;;;19.70;47.40;;;;;;5095594;28;20549;-70
2021/05/19 06:04:25;;;;;;;4.68;2.33;;;19.70;47.40;;;;;;5096680;28;20107;-70
2021/05/19 06:06:50;;;;;;;4.90;2.35;;;19.70;47.40;;;;;;5096556;28;20042;-70
2021/05/19 06:09:16;;;;;;;4.85;2.35;;;19.70;47.40;;;;;;5096535;28;20065;-70
2021/05/19 06:11:41;;;;;;;5.05;2.60;;;19.70;47.40;;;;;;5096676;28;20024;-70
2021/05/19 06:14:07;;;;;;;4.85;2.38;;;19.70;47.40;;;;;;5096719;28;20527;-70
2021/05/19 06:16:33;;;;;;;4.88;2.55;;;19.70;47.30;;;;;;5096705;28;20024;-71
2021/05/19 06:18:58;;;;;;;5.07;2.50;;;19.70;47.40;;;;;;5106634;28;20020;-71
2021/05/19 06:21:24;;;;;;;4.07;2.15;;;19.70;47.30;;;;;;5105901;28;20023;-71
2021/05/19 06:23:49;;;;;;;5.93;2.75;;;19.70;47.30;;;;;;5099649;28;20032;-71
2021/05/19 06:26:15;;;;;;;4.70;2.45;;;19.70;47.50;;;;;;5099884;28;20059;-70
2021/05/19 06:28:40;;;;;;;4.82;2.20;;;19.70;47.50;;;;;;5099948;28;20058;-71
2021/05/19 06:31:06;;;;;;;5.15;2.38;;;19.70;47.50;;;;;;5080832;28;20078;-70
2021/05/19 06:33:32;;;;;;;4.15;1.90;;;19.70;47.50;;;;;;5094000;28;20032;-71
2021/05/19 06:35:57;;;;;;;6.53;2.55;;;19.70;47.50;;;;;;5095073;28;20368;-71
2021/05/19 06:38:22;;;;;;;5.63;2.47;;;19.70;47.60;;;;;;5094402;28;20020;-71
2021/05/19 06:40:48;;;;;;;5.60;2.75;;;19.70;47.60;;;;;;5095311;28;20020;-70
2021/05/19 06:43:14;;;;;;;6.03;2.72;;;19.70;47.60;;;;;;5076381;28;20033;-71
2021/05/19 06:45:39;;;;;;;5.85;2.63;;;19.80;47.60;;;;;;5074286;28;20083;-72
2021/05/19 06:48:05;;;;;;;7.13;2.83;;;19.80;47.70;;;;;;5074442;28;20027;-71
2021/05/19 06:50:31;;;;;;;6.85;2.30;;;19.80;47.60;;;;;;5074904;28;20025;-72
2021/05/19 06:52:57;;;;;;;4.38;2.22;;;19.80;47.80;;;;;;5090738;28;20514;-72
2021/05/19 06:55:23;;;;;;;5.40;2.50;;;19.80;47.70;;;;;;5094609;28;20043;-73
2021/05/19 06:57:49;;;;;;;8.30;2.60;;;19.90;47.60;;;;;;5094866;28;20016;-73
2021/05/19 07:00:15;;;;;;;6.35;2.72;;;19.90;47.60;;;;;;5094571;28;20027;-73
2021/05/19 07:02:40;;;;;;;5.15;2.70;;;19.90;47.50;;;;;;5096720;28;20371;-73
2021/05/19 07:05:08;;;;;;;5.07;2.33;;;19.90;47.40;;;;;;5107480;28;20012;-72
2021/05/19 07:07:34;;;;;;;5.10;2.50;;;19.90;47.50;;;;;;5094069;28;20027;-73
2021/05/19 07:09:59;;;;;;;6.20;2.75;;;19.90;47.50;;;;;;5095074;28;20111;-73
2021/05/19 07:12:25;;;;;;;6.50;2.63;;;19.90;47.50;;;;;;5094871;28;20035;-73
2021/05/19 07:14:54;;;;;;;3.72;2.05;;;20.00;47.50;;;;;;5094911;28;20028;-72
2021/05/19 07:17:19;;;;;;;6.45;2.63;;;20.00;47.50;;;;;;5092633;28;20316;-73
2021/05/19 07:19:45;;;;;;;5.78;2.45;;;20.00;47.50;;;;;;5094362;28;20073;-70
2021/05/19 07:22:11;;;;;;;5.78;2.38;;;20.00;47.50;;;;;;5094234;28;20032;-74
2021/05/19 07:24:36;;;;;;;4.15;1.92;;;19.90;47.50;;;;;;5092121;28;20075;-72
2021/05/19 07:27:02;;;;;;;6.13;2.35;;;19.90;47.60;;;;;;5074750;28;20040;-72
2021/05/19 07:29:27;;;;;;;5.10;2.55;;;19.90;47.70;;;;;;5073443;28;20025;-72
2021/05/19 07:31:53;;;;;;;4.63;2.30;;;20.00;47.70;;;;;;5072704;28;20025;-73
2021/05/19 07:34:19;;;;;;;5.95;2.53;;;20.00;47.60;;;;;;5073131;28;20025;-74
2021/05/19 07:36:45;;;;;;;4.25;2.13;;;20.00;47.40;;;;;;5073290;28;20021;-74
2021/05/19 07:39:11;;;;;;;5.85;2.08;;;20.10;47.40;;;;;;5073264;28;20032;-74
2021/05/19 07:41:36;;;;;;;5.18;2.20;;;20.10;47.40;;;;;;5074639;28;20357;-73
2021/05/19 07:44:03;;;;;;;4.88;2.45;;;20.10;47.30;;;;;;5073804;28;20540;-74
2021/05/19 07:46:29;;;;;;;5.43;2.53;;;20.10;47.40;;;;;;5073936;28;20036;-74
2021/05/19 07:48:55;;;;;;;5.20;2.35;;;20.00;47.40;;;;;;5073734;28;20025;-74
2021/05/19 07:51:20;;;;;;;5.05;2.03;;;20.10;47.50;;;;;;5072696;28;20032;-74
2021/05/19 07:53:46;;;;;;;5.90;2.60;;;20.10;47.50;;;;;;5073790;28;20368;-72
2021/05/19 07:58:41;;;;;;;3.28;1.70;;;20.10;47.50;;;;;;5075968;28;20078;-73
2021/05/19 08:03:51;;;;;;;4.40;2.10;;;20.10;47.50;;;;;;5073383;28;20388;-74
2021/05/19 08:06:17;;;;;;;5.50;2.28;;;20.10;47.40;;;;;;5073092;28;20037;-74
2021/05/19 08:08:43;;;;;;;4.95;2.20;;;20.20;47.40;;;;;;5071940;28;20021;-74
2021/05/19 08:11:09;;;;;;;4.80;2.22;;;20.10;47.40;;;;;;5072118;28;20066;-73
2021/05/19 08:13:39;;;;;;;4.90;2.28;;;20.20;47.40;;;;;;5073573;28;20054;-74
2021/05/19 08:16:08;;;;;;;4.45;2.10;;;20.20;47.50;;;;;;5072193;28;20031;-73
2021/05/19 08:18:34;;;;;;;5.50;1.90;;;20.10;47.50;;;;;;5073169;28;20025;-73
2021/05/19 08:21:00;;;;;;;9.15;2.42;;;20.20;47.40;;;;;;5072812;28;20104;-75
2021/05/19 08:23:26;;;;;;;6.80;2.35;;;20.20;47.50;;;;;;5072291;28;20022;-75
2021/05/19 08:25:52;;;;;;;5.20;2.20;;;20.20;47.50;;;;;;5072719;28;20151;-74
2021/05/19 08:28:18;;;;;;;5.38;2.22;;;20.20;47.50;;;;;;5072686;28;20020;-74
2021/05/19 08:30:43;;;;;;;3.90;2.13;;;20.20;47.50;;;;;;5072739;28;20033;-74
2021/05/19 08:33:09;;;;;;;6.10;2.30;;;20.20;47.50;;;;;;5072198;28;20384;-73
2021/05/19 08:35:35;;;;;;;4.47;2.00;;;20.20;47.50;;;;;;5074000;28;20028;-73
2021/05/19 08:38:00;;;;;;;4.15;2.00;;;20.20;47.50;;;;;;5073425;28;20020;-74
2021/05/19 08:40:27;;;;;;;4.80;2.35;;;20.20;47.50;;;;;;5072695;28;20028;-74
2021/05/19 08:42:53;;;;;;;3.97;2.10;;;20.20;47.50;;;;;;5071899;28;20016;-74
2021/05/19 08:45:19;;;;;;;4.50;2.08;;;20.20;47.50;;;;;;5072034;28;20491;-74
2021/05/19 08:47:46;;;;;;;4.80;2.35;;;20.20;47.60;;;;;;5072948;28;20464;-72
2021/05/19 08:50:12;;;;;;;4.72;2.10;;;20.20;47.50;;;;;;5072439;28;20385;-74
2021/05/19 08:52:38;;;;;;;5.35;2.30;;;20.20;47.50;;;;;;5072969;28;20036;-72
2021/05/19 08:55:17;;;;;;;5.13;2.13;;;20.20;47.50;;;;;;5072200;28;20440;-74
2021/05/19 08:57:43;;;;;;;5.20;1.85;;;20.20;47.50;;;;;;5072686;28;20029;-74
2021/05/19 09:00:10;;;;;;;4.80;2.10;;;20.20;47.50;;;;;;5072325;28;20177;-75
2021/05/19 09:02:36;;;;;;;5.55;2.13;;;20.30;47.50;;;;;;5071573;28;20048;-73
2021/05/19 09:05:04;;;;;;;4.85;2.25;;;20.30;47.50;;;;;;5070724;28;20436;-74
2021/05/19 09:07:30;;;;;;;5.13;2.08;;;20.30;47.40;;;;;;5071099;28;20021;-73
2021/05/19 09:09:55;;;;;;;5.70;2.40;;;20.30;47.30;;;;;;5071218;28;20032;-74
2021/05/19 09:12:22;;;;;;;4.97;2.05;;;20.30;47.40;;;;;;5071441;28;20028;-74
2021/05/19 09:15:03;;;;;;;4.80;2.08;;;20.40;47.40;;;;;;5070346;28;20477;-73
2021/05/19 09:17:33;;;;;;;5.43;2.05;;;20.40;47.40;;;;;;5073501;28;20037;-74
2021/05/19 09:20:06;;;;;;;5.32;1.90;;;20.40;47.50;;;;;;5091545;28;20020;-74
2021/05/19 09:22:37;;;;;;;7.50;1.92;;;20.40;47.40;;;;;;5081988;28;20029;-71
2021/05/19 09:25:27;;;;;;;3.97;1.85;;;20.30;47.50;;;;;;5087483;28;20381;-74
2021/05/19 09:27:57;;;;;;;4.20;2.20;;;20.30;47.60;;;;;;5091018;28;20024;-74
2021/05/19 09:30:41;;;;;;;5.85;2.35;;;20.30;47.70;;;;;;5092689;28;20066;-74
2021/05/19 09:33:27;;;;;;;5.53;2.25;;;20.30;47.80;;;;;;5086269;28;20032;-71
2021/05/19 09:36:19;;;;;;;4.00;1.88;;;20.30;47.90;;;;;;5076003;28;20486;-71
2021/05/19 09:38:49;;;;;;;4.93;2.25;;;20.20;47.80;;;;;;5070556;28;20146;-73
2021/05/19 09:41:19;;;;;;;5.72;1.95;;;20.30;47.90;;;;;;5070722;28;20131;-72
2021/05/19 09:43:45;;;;;;;4.90;1.98;;;20.30;47.90;;;;;;5076230;28;20537;-72
2021/05/19 09:46:27;;;;;;;4.13;1.98;;;20.30;48.00;;;;;;5090556;28;20042;-73
2021/05/19 09:49:12;;;;;;;6.32;2.10;;;20.30;48.00;;;;;;5089915;28;20388;-74
2021/05/19 09:51:38;;;;;;;5.68;2.00;;;20.30;48.00;;;;;;5080627;28;20103;-73
2021/05/19 09:54:04;;;;;;;6.28;2.13;;;20.20;48.10;;;;;;5070508;28;20062;-73
2021/05/19 09:56:30;;;;;;;5.22;1.88;;;20.20;48.00;;;;;;5067586;28;20686;-75
2021/05/19 09:58:55;;;;;;;6.25;2.15;;;20.20;48.10;;;;;;5071047;28;20471;-72
2021/05/19 10:01:21;;;;;;;4.40;2.10;;;20.20;48.20;;;;;;5074071;28;20067;-70
2021/05/19 10:03:47;;;;;;;6.00;1.95;;;20.20;48.10;;;;;;5072737;28;20021;-73
2021/05/19 10:06:25;;;;;;;4.18;1.70;;;20.20;48.10;;;;;;5074114;28;20037;-74
2021/05/19 10:08:51;;;;;;;5.05;1.70;;;20.20;48.00;;;;;;5073289;28;20020;-74
2021/05/19 10:11:17;;;;;;;4.57;1.92;;;20.20;48.00;;;;;;5074365;28;20032;-73
2021/05/19 10:13:43;;;;;;;5.82;2.28;;;20.30;48.00;;;;;;5073989;28;20020;-72
2021/05/19 10:16:14;;;;;;;5.45;2.00;;;20.30;47.90;;;;;;5074090;28;20035;-72
2021/05/19 10:18:54;;;;;;;4.88;2.05;;;20.30;47.80;;;;;;5073747;28;20044;-72
2021/05/19 10:21:21;;;;;;;4.00;2.00;;;20.40;47.70;;;;;;5074195;28;20102;-72
2021/05/19 10:24:02;;;;;;;5.15;2.03;;;20.40;47.70;;;;;;5070804;28;20112;-71
2021/05/19 10:26:30;;;;;;;5.65;2.10;;;20.30;47.70;;;;;;5073639;28;20049;-71
2021/05/19 10:28:55;;;;;;;5.10;1.92;;;20.40;47.70;;;;;;5072287;28;20019;-74
2021/05/19 10:31:40;;;;;;;5.70;2.60;;;20.40;47.70;;;;;;5071570;28;20032;-72
2021/05/19 10:34:06;;;;;;;4.47;1.83;;;20.30;47.80;;;;;;5069121;28;20023;-74
2021/05/19 10:36:39;;;;;;;4.93;1.90;;;20.30;47.80;;;;;;5072196;28;20036;-73
2021/05/19 10:39:10;;;;;;;3.85;2.00;;;20.40;47.80;;;;;;5071546;28;20032;-74
2021/05/19 10:41:37;;;;;;;4.50;1.88;;;20.30;47.80;;;;;;5073200;28;20024;-73
2021/05/19 10:44:07;;;;;;;6.82;1.90;;;20.40;47.70;;;;;;5072758;28;20100;-72
2021/05/19 10:49:46;;;;;;;6.53;2.33;;;20.40;47.60;;;;;;5068765;28;20132;-71
2021/05/19 10:52:20;;;;;;;3.85;1.80;;;20.50;47.60;;;;;;5071018;28;20032;-73
2021/05/19 10:57:42;;;;;;;4.18;1.73;;;20.50;47.50;;;;;;5073963;28;20391;-71
2021/05/19 11:00:22;;;;;;;4.00;1.70;;;20.50;47.40;;;;;;5073414;28;20108;-70
2021/05/19 11:02:57;;;;;;;3.67;1.80;;;20.50;47.40;;;;;;5072842;28;20083;-72
2021/05/19 11:05:36;;;;;;;4.13;1.73;;;20.50;47.50;;;;;;5073413;28;20028;-72
2021/05/19 11:08:05;;;;;;;5.30;2.00;;;20.50;47.50;;;;;;5082768;28;20479;-70
2021/05/19 11:10:54;;;;;;;5.60;2.10;;;20.50;47.50;;;;;;5093107;28;20081;-72
2021/05/19 11:13:23;;;;;;;4.45;1.55;;;20.60;47.40;;;;;;5092195;28;20032;-72
2021/05/19 11:18:24;;;;;;;4.18;1.77;;;20.50;47.50;;;;;;5093497;28;20051;-73
2021/05/19 11:20:50;;;;;;;4.57;1.75;;;20.70;47.30;;;;;;5093207;28;20020;-72
2021/05/19 11:23:17;;;;;;;3.75;1.60;;;20.60;47.20;;;;;;5092273;28;20388;-72
2021/05/19 11:25:44;;;;;;;4.10;1.60;;;20.70;47.40;;;;;;5093421;28;20081;-71
2021/05/19 11:28:10;;;;;;;3.60;1.73;;;20.60;47.40;;;;;;5093567;28;20758;-70
2021/05/19 11:30:36;;;;;;;3.97;1.95;;;20.60;47.40;;;;;;5093802;28;20021;-74
2021/05/19 11:33:12;;;;;;;4.00;1.80;;;20.60;47.40;;;;;;5092874;28;20632;-74
2021/05/19 11:35:38;;;;;;;4.63;1.85;;;20.60;47.40;;;;;;5093142;28;20103;-72
2021/05/19 11:38:06;;;;;;;6.38;1.70;;;20.50;47.50;;;;;;5093069;28;20089;-70
2021/05/19 11:41:00;;;;;;;4.95;2.00;;;20.50;47.50;;;;;;5092998;28;20101;-71
2021/05/19 11:43:36;;;;;;;3.15;1.60;;;20.50;47.50;;;;;;5090859;28;20539;-70
2021/05/19 11:46:01;;;;;;;7.00;2.17;;;20.50;47.50;;;;;;5072318;28;20040;-73
2021/05/19 11:48:28;;;;;;;3.90;1.73;;;20.60;47.50;;;;;;5072279;28;20035;-72
2021/05/19 11:50:55;;;;;;;4.63;1.80;;;20.60;47.40;;;;;;5072647;28;20486;-72
2021/05/19 11:53:21;;;;;;;4.85;1.77;;;20.60;47.40;;;;;;5072520;28;20028;-72
2021/05/19 11:55:51;;;;;;;4.45;1.88;;;20.80;47.10;;;;;;5072364;28;20035;-72
2021/05/19 11:58:29;;;;;;;4.65;2.05;;;20.80;47.20;;;;;;5075514;28;20460;-73
2021/05/19 12:00:58;;;;;;;3.58;1.70;;;20.80;47.10;;;;;;5073249;28;20097;-70
2021/05/19 12:03:26;;;;;;;5.60;2.28;;;20.90;46.90;;;;;;5073629;28;20039;-72
2021/05/19 12:05:59;;;;;;;3.38;1.52;;;20.90;46.90;;;;;;5072680;28;20036;-71
2021/05/19 12:08:36;;;;;;;3.80;1.65;;;21.00;46.80;;;;;;5073907;28;20112;-72
2021/05/19 12:11:15;;;;;;;3.88;1.67;;;21.00;46.60;;;;;;5080557;28;20055;-71
2021/05/19 12:13:53;;;;;;;4.88;1.50;;;21.10;46.60;;;;;;5081798;28;20527;-68
2021/05/19 12:16:30;;;;;;;4.78;1.80;;;21.20;46.50;;;;;;5079911;28;20500;-69
2021/05/19 12:19:08;;;;;;;5.97;1.88;;;21.20;46.30;;;;;;5081371;28;20029;-70
2021/05/19 12:21:43;;;;;;;3.83;1.55;;;21.30;46.20;;;;;;5073829;28;20032;-75
2021/05/19 12:24:10;;;;;;;3.35;1.70;;;21.40;46.10;;;;;;5081289;28;20111;-73
2021/05/19 12:26:37;;;;;;;4.30;1.77;;;21.50;45.90;;;;;;5072519;28;20488;-74
2021/05/19 12:29:36;;;;;;;2.80;1.35;;;21.50;45.90;;;;;;5071932;28;20104;-74
2021/05/19 12:32:14;;;;;;;4.47;1.60;;;21.50;45.80;;;;;;5077826;28;20546;-74
2021/05/19 12:34:41;;;;;;;4.30;1.55;;;21.50;45.80;;;;;;5092401;28;20028;-73
2021/05/19 12:37:07;;;;;;;3.55;1.70;;;21.50;45.80;;;;;;5092112;28;20055;-73
2021/05/19 12:39:34;;;;;;;4.38;1.58;;;21.60;45.60;;;;;;5092572;28;20020;-73
2021/05/19 12:42:14;;;;;;;3.35;1.45;;;21.60;45.60;;;;;;5089155;28;20023;-74
2021/05/19 12:44:40;;;;;;;4.72;1.65;;;21.60;45.80;;;;;;5071812;28;20021;-75
2021/05/19 12:47:08;;;;;;;6.07;1.80;;;21.60;45.90;;;;;;5072257;28;20108;-72
2021/05/19 12:49:34;;;;;;;3.38;1.40;;;21.50;46.20;;;;;;5090869;28;20368;-74
2021/05/19 12:52:18;;;;;;;4.07;1.55;;;21.70;46.00;;;;;;5091777;28;20032;-75
2021/05/19 12:54:51;;;;;;;3.27;1.40;;;21.60;46.00;;;;;;5092069;28;20065;-71
2021/05/19 12:57:23;;;;;;;4.30;1.63;;;21.50;46.20;;;;;;5092041;28;20024;-70
2021/05/19 13:00:00;;;;;;;3.83;1.35;;;21.50;46.30;;;;;;5089421;28;20039;-72
2021/05/19 13:02:30;;;;;;;4.07;1.70;;;21.50;46.60;;;;;;5091762;28;20056;-76
2021/05/19 13:04:56;;;;;;;3.45;1.40;;;21.40;46.80;;;;;;5091946;28;20035;-75